createdAt,value
2019-03-22T00:00:10.249Z,39.20
2019-03-22T00:02:38.796Z,39.00
2019-03-22T00:05:07.281Z,39.30
2019-03-22T00:07:35.743Z,39.40
2019-03-22T00:10:05.501Z,40.40
2019-03-22T00:12:33.913Z,40.90
2019-03-22T00:15:02.439Z,41.20
2019-03-22T00:17:30.847Z,41.30
2019-03-22T00:19:59.252Z,41.50
2019-03-22T00:22:28.078Z,41.70
2019-03-22T00:24:56.485Z,41.50
2019-03-22T00:27:24.925Z,41.80
2019-03-22T00:29:53.361Z,41.90
2019-03-22T00:32:21.798Z,42.40
2019-03-22T00:34:50.313Z,42.60
2019-03-22T00:37:18.792Z,43.10
2019-03-22T00:39:47.698Z,43.70
2019-03-22T00:42:16.122Z,43.80
2019-03-22T00:44:44.533Z,43.80
2019-03-22T00:47:12.941Z,44.20
2019-03-22T00:49:41.396Z,44.50
2019-03-22T00:52:09.827Z,44.80
2019-03-22T00:54:38.301Z,44.70
2019-03-22T00:57:06.806Z,44.90
2019-03-22T00:59:35.229Z,44.50
2019-03-22T01:02:03.647Z,44.30
2019-03-22T01:04:32.073Z,44.60
2019-03-22T01:07:00.761Z,44.60
2019-03-22T01:09:29.241Z,45.00
2019-03-22T01:11:57.655Z,44.90
2019-03-22T01:14:26.065Z,44.70
2019-03-22T01:16:54.488Z,44.40
2019-03-22T01:19:22.902Z,43.80
2019-03-22T01:21:51.391Z,43.90
2019-03-22T01:24:20.152Z,43.80
2019-03-22T01:26:48.575Z,43.30
2019-03-22T01:29:16.977Z,43.10
2019-03-22T01:31:45.429Z,43.10
2019-03-22T01:34:13.821Z,43.40
2019-03-22T01:36:42.245Z,43.70
2019-03-22T01:39:10.658Z,43.90
2019-03-22T01:41:39.093Z,44.60
2019-03-22T01:44:07.538Z,45.10
2019-03-22T01:46:36.284Z,45.20
2019-03-22T01:49:05.369Z,44.90
2019-03-22T01:51:33.785Z,45.00
2019-03-22T01:54:02.211Z,45.00
2019-03-22T01:56:30.646Z,45.00
2019-03-22T01:58:59.074Z,45.30
2019-03-22T02:01:27.561Z,45.10
2019-03-22T02:03:56.277Z,45.20
2019-03-22T02:06:24.685Z,45.00
2019-03-22T02:08:53.093Z,44.90
2019-03-22T02:11:21.494Z,44.80
2019-03-22T02:13:49.996Z,45.60
2019-03-22T02:16:19.003Z,46.20
2019-03-22T02:18:47.501Z,46.90
2019-03-22T02:21:15.904Z,46.90
2019-03-22T02:23:44.349Z,46.80
2019-03-22T02:26:12.730Z,47.50
2019-03-22T02:28:41.275Z,47.70
2019-03-22T02:31:09.731Z,48.00
2019-03-22T02:33:38.125Z,48.40
2019-03-22T02:36:06.558Z,48.40
2019-03-22T02:38:34.975Z,48.30
2019-03-22T02:41:03.403Z,48.40
2019-03-22T02:43:31.907Z,48.70
2019-03-22T02:46:00.405Z,48.60
2019-03-22T02:48:29.014Z,48.50
2019-03-22T02:50:57.435Z,48.30
2019-03-22T02:53:25.844Z,48.00
2019-03-22T02:55:54.428Z,47.70
2019-03-22T02:58:22.947Z,47.80
2019-03-22T03:00:51.380Z,47.30
2019-03-22T03:03:20.109Z,46.20
2019-03-22T03:05:48.541Z,45.70
2019-03-22T03:08:16.954Z,45.70
2019-03-22T03:10:45.408Z,46.90
2019-03-22T03:13:13.882Z,48.00
2019-03-22T03:15:42.330Z,48.70
2019-03-22T03:18:10.840Z,48.70
2019-03-22T03:20:39.235Z,48.70
2019-03-22T03:23:07.775Z,50.10
2019-03-22T03:25:36.209Z,49.90
2019-03-22T03:28:04.768Z,49.70
2019-03-22T03:30:33.488Z,49.60
2019-03-22T03:33:02.036Z,50.20
2019-03-22T03:35:30.739Z,50.40
2019-03-22T03:37:59.235Z,50.50
2019-03-22T03:40:27.799Z,50.70
2019-03-22T03:42:56.298Z,50.80
2019-03-22T03:45:30.533Z,50.70
2019-03-22T03:48:00.873Z,50.90
2019-03-22T03:50:29.625Z,51.10
2019-03-22T03:52:58.206Z,51.40
2019-03-22T03:55:27.371Z,51.20
2019-03-22T03:57:56.143Z,51.40
2019-03-22T04:00:24.584Z,51.60
2019-03-22T04:02:53.083Z,51.30
2019-03-22T04:05:21.506Z,50.90
2019-03-22T04:07:49.938Z,51.00
2019-03-22T04:10:18.485Z,50.80
2019-03-22T04:12:46.949Z,50.90
2019-03-22T04:15:15.487Z,50.80
2019-03-22T04:17:43.946Z,51.10
2019-03-22T04:20:12.476Z,50.50
2019-03-22T04:22:40.918Z,51.80
2019-03-22T04:25:09.484Z,51.10
2019-03-22T04:27:37.957Z,51.00
2019-03-22T04:30:07.203Z,51.00
2019-03-22T04:32:35.659Z,50.50
2019-03-22T04:35:06.105Z,50.70
2019-03-22T04:37:34.545Z,50.80
2019-03-22T04:40:04.516Z,51.10
2019-03-22T04:42:32.957Z,50.90
2019-03-22T04:45:01.425Z,50.70
2019-03-22T04:47:29.841Z,50.80
2019-03-22T04:49:58.361Z,50.40
2019-03-22T04:52:27.314Z,49.70
2019-03-22T04:54:57.825Z,50.50
2019-03-22T04:57:28.093Z,51.00
2019-03-22T04:59:57.844Z,51.30
2019-03-22T05:02:26.812Z,51.50
2019-03-22T05:04:55.553Z,51.30
2019-03-22T05:07:24.056Z,51.20
2019-03-22T05:09:52.537Z,50.90
2019-03-22T05:12:22.501Z,50.60
2019-03-22T05:14:52.246Z,50.20
2019-03-22T05:17:21.317Z,49.90
2019-03-22T05:19:52.882Z,49.10
2019-03-22T05:22:23.002Z,49.30
2019-03-22T05:24:52.602Z,49.80
2019-03-22T05:27:22.325Z,50.40
2019-03-22T05:29:53.936Z,50.80
2019-03-22T05:32:22.582Z,51.20
2019-03-22T05:34:51.050Z,51.70
2019-03-22T05:37:19.862Z,52.00
2019-03-22T05:39:48.298Z,52.60
2019-03-22T05:42:16.800Z,52.80
2019-03-22T05:44:45.210Z,53.00
2019-03-22T05:47:13.637Z,53.00
2019-03-22T05:49:42.093Z,53.40
2019-03-22T05:52:10.521Z,53.50
2019-03-22T05:54:38.956Z,53.10
2019-03-22T05:57:13.453Z,53.10
2019-03-22T05:59:42.444Z,53.10
2019-03-22T06:02:07.689Z,53.00
2019-03-22T06:04:36.450Z,53.00
2019-03-22T06:07:04.863Z,52.90
2019-03-22T06:09:33.325Z,52.90
2019-03-22T06:12:02.975Z,52.90
2019-03-22T06:14:31.400Z,52.90
2019-03-22T06:16:59.850Z,52.90
2019-03-22T06:19:28.801Z,52.50
2019-03-22T06:21:57.253Z,52.50
2019-03-22T06:24:25.664Z,52.30
2019-03-22T06:26:54.161Z,51.80
2019-03-22T06:29:22.905Z,51.50
2019-03-22T06:31:51.556Z,51.40
2019-03-22T06:34:19.979Z,50.20
2019-03-22T06:36:48.477Z,50.10
2019-03-22T06:39:16.939Z,49.30
2019-03-22T06:41:45.361Z,48.30
2019-03-22T06:44:13.866Z,47.20
2019-03-22T06:46:42.339Z,46.50
2019-03-22T06:49:10.777Z,45.80
2019-03-22T06:51:39.191Z,44.80
2019-03-22T06:54:07.618Z,44.10
2019-03-22T06:56:36.025Z,43.90
2019-03-22T06:59:04.920Z,42.90
2019-03-22T07:01:33.640Z,41.70
2019-03-22T07:04:02.546Z,40.90
2019-03-22T07:06:31.814Z,40.90
2019-03-22T07:09:00.640Z,40.20
2019-03-22T07:11:29.365Z,36.90
2019-03-22T07:13:58.018Z,35.70
2019-03-22T07:16:26.502Z,34.80
2019-03-22T07:18:55.015Z,33.40
2019-03-22T07:21:23.418Z,32.40
2019-03-22T07:23:51.925Z,31.80
2019-03-22T07:26:20.350Z,31.60
2019-03-22T07:28:48.769Z,31.50
2019-03-22T07:31:17.185Z,30.60
2019-03-22T07:33:45.625Z,30.10
2019-03-22T07:36:14.073Z,29.40
2019-03-22T07:38:42.681Z,29.70
2019-03-22T07:41:11.177Z,28.30
2019-03-22T07:43:39.653Z,28.10
2019-03-22T07:46:08.077Z,28.90
2019-03-22T07:48:36.508Z,28.30
2019-03-22T07:51:04.944Z,28.30
2019-03-22T07:53:33.369Z,28.30
2019-03-22T07:56:01.843Z,27.80
2019-03-22T07:58:30.259Z,27.70
2019-03-22T08:01:00.547Z,27.20
2019-03-22T08:03:28.987Z,27.40
2019-03-22T08:05:57.450Z,26.60
2019-03-22T08:08:26.229Z,26.80
2019-03-22T08:10:54.713Z,27.60
2019-03-22T08:13:23.196Z,28.30
2019-03-22T08:15:51.653Z,26.80
2019-03-22T08:18:20.154Z,26.50
2019-03-22T08:20:48.633Z,27.60
2019-03-22T08:23:21.831Z,25.60
2019-03-22T08:25:50.666Z,25.80
2019-03-22T08:28:19.200Z,25.60
2019-03-22T08:30:47.673Z,25.40
2019-03-22T08:33:16.134Z,25.40
2019-03-22T08:35:44.644Z,27.00
2019-03-22T08:38:13.226Z,25.30
2019-03-22T08:40:41.760Z,26.10
2019-03-22T08:43:10.237Z,26.20
2019-03-22T08:45:38.681Z,26.20
2019-03-22T08:48:07.243Z,25.50
2019-03-22T08:50:35.795Z,24.70
2019-03-22T08:53:05.048Z,25.00
2019-03-22T08:55:33.596Z,25.20
2019-03-22T08:58:02.066Z,25.40
2019-03-22T09:00:39.030Z,25.50
2019-03-22T09:03:00.765Z,25.70
2019-03-22T09:05:29.215Z,25.80
2019-03-22T09:07:57.702Z,25.80
2019-03-22T09:10:26.149Z,26.10
2019-03-22T09:12:54.586Z,26.30
2019-03-22T09:15:23.208Z,25.90
2019-03-22T09:17:51.674Z,25.60
2019-03-22T09:20:20.126Z,24.90
2019-03-22T09:22:48.553Z,24.40
2019-03-22T09:25:17.134Z,24.00
2019-03-22T09:27:45.580Z,23.90
2019-03-22T09:30:14.766Z,23.90
2019-03-22T09:32:43.258Z,23.70
2019-03-22T09:35:11.862Z,23.50
2019-03-22T09:37:40.347Z,23.70
2019-03-22T09:40:09.432Z,24.10
2019-03-22T09:42:37.901Z,23.80
2019-03-22T09:45:08.513Z,23.60
2019-03-22T09:47:36.968Z,23.40
2019-03-22T09:50:08.357Z,24.10
2019-03-22T09:52:36.899Z,24.30
2019-03-22T09:55:13.360Z,23.80
2019-03-22T09:57:36.034Z,23.90
2019-03-22T10:00:07.401Z,24.90
2019-03-22T10:02:35.959Z,24.60
2019-03-22T10:05:05.809Z,24.60
2019-03-22T10:07:34.310Z,24.50
2019-03-22T10:10:03.436Z,24.50
2019-03-22T10:12:31.902Z,24.20
2019-03-22T10:15:00.449Z,24.30
2019-03-22T10:17:29.010Z,23.60
2019-03-22T10:19:57.513Z,22.50
2019-03-22T10:22:25.980Z,22.70
2019-03-22T10:24:54.858Z,22.70
2019-03-22T10:27:23.272Z,23.00
2019-03-22T10:29:51.806Z,23.70
2019-03-22T10:32:20.675Z,24.10
2019-03-22T10:34:50.571Z,23.70
2019-03-22T10:37:19.013Z,23.60
2019-03-22T10:39:47.483Z,23.10
2019-03-22T10:42:16.061Z,23.20
2019-03-22T10:44:44.560Z,22.60
2019-03-22T10:47:13.037Z,22.90
2019-03-22T10:49:42.085Z,22.70
2019-03-22T10:52:11.053Z,23.10
2019-03-22T10:54:39.643Z,22.90
2019-03-22T10:57:08.548Z,22.50
2019-03-22T10:59:37.026Z,22.70
2019-03-22T11:02:07.835Z,23.00
2019-03-22T11:04:35.819Z,23.60
2019-03-22T11:07:04.947Z,23.20
2019-03-22T11:09:33.398Z,22.60
2019-03-22T11:12:11.747Z,22.60
2019-03-22T11:14:32.167Z,23.10
2019-03-22T11:17:00.665Z,22.50
2019-03-22T11:19:29.236Z,22.80
2019-03-22T11:21:57.683Z,23.20
2019-03-22T11:24:26.129Z,23.30
2019-03-22T11:26:54.570Z,23.50
2019-03-22T11:29:23.042Z,23.30
2019-03-22T11:31:51.487Z,22.90
2019-03-22T11:34:20.017Z,21.80
2019-03-22T11:36:48.435Z,22.40
2019-03-22T11:39:17.513Z,22.50
2019-03-22T11:41:45.945Z,21.90
2019-03-22T11:44:14.519Z,21.60
2019-03-22T11:46:43.479Z,21.30
2019-03-22T11:49:12.511Z,22.30
2019-03-22T11:51:41.173Z,22.20
2019-03-22T11:54:09.650Z,21.80
2019-03-22T11:56:38.049Z,21.70
2019-03-22T11:59:06.644Z,21.20
2019-03-22T12:01:35.140Z,21.40
2019-03-22T12:04:03.801Z,21.40
2019-03-22T12:06:32.295Z,20.40
2019-03-22T12:09:00.764Z,21.50
2019-03-22T12:11:29.550Z,22.20
2019-03-22T12:13:58.034Z,22.30
2019-03-22T12:16:26.472Z,22.00
2019-03-22T12:18:55.001Z,21.20
2019-03-22T12:21:23.440Z,21.20
2019-03-22T12:23:51.943Z,21.10
2019-03-22T12:26:20.403Z,21.30
2019-03-22T12:28:48.962Z,21.50
2019-03-22T12:31:19.382Z,21.60
2019-03-22T12:33:47.545Z,20.50
2019-03-22T12:36:16.352Z,19.70
2019-03-22T12:38:44.826Z,19.80
2019-03-22T12:41:13.234Z,19.80
2019-03-22T12:43:41.674Z,19.40
2019-03-22T12:46:10.161Z,19.80
2019-03-22T12:48:38.594Z,19.50
2019-03-22T12:51:07.008Z,19.20
2019-03-22T12:53:35.436Z,19.40
2019-03-22T12:56:04.237Z,19.40
2019-03-22T12:58:32.665Z,19.10
2019-03-22T13:01:01.257Z,19.30
2019-03-22T13:03:29.845Z,18.50
2019-03-22T13:05:58.257Z,18.30
2019-03-22T13:08:26.776Z,18.00
2019-03-22T13:10:55.277Z,18.40
2019-03-22T13:13:23.701Z,18.30
2019-03-22T13:15:52.173Z,18.00
2019-03-22T13:18:20.663Z,18.80
2019-03-22T13:20:51.029Z,19.00
2019-03-22T13:23:19.673Z,18.00
2019-03-22T13:25:48.134Z,18.30
2019-03-22T13:28:16.587Z,17.90
2019-03-22T13:30:45.021Z,18.40
2019-03-22T13:33:13.465Z,18.20
2019-03-22T13:35:41.888Z,18.80
2019-03-22T13:38:10.398Z,19.20
2019-03-22T13:40:38.843Z,19.90
2019-03-22T13:43:07.521Z,19.50
2019-03-22T13:45:36.068Z,19.20
2019-03-22T13:48:04.658Z,19.50
2019-03-22T13:50:33.112Z,20.20
2019-03-22T13:53:01.601Z,20.00
2019-03-22T13:55:30.020Z,19.80
2019-03-22T13:57:58.527Z,19.60
2019-03-22T14:00:26.985Z,19.30
2019-03-22T14:03:03.030Z,19.70
2019-03-22T14:05:25.693Z,19.40
2019-03-22T14:07:54.963Z,19.30
2019-03-22T14:10:31.339Z,18.50
2019-03-22T14:13:03.679Z,18.60
2019-03-22T14:15:32.130Z,19.30
2019-03-22T14:18:01.366Z,19.20
2019-03-22T14:20:30.334Z,18.60
2019-03-22T14:22:58.913Z,18.40
2019-03-22T14:25:28.374Z,18.50
2019-03-22T14:27:57.662Z,18.50
2019-03-22T14:30:26.155Z,18.50
2019-03-22T14:32:55.019Z,18.60
2019-03-22T14:35:23.507Z,18.70
2019-03-22T14:37:51.950Z,19.30
2019-03-22T14:40:20.413Z,18.70
2019-03-22T14:42:48.865Z,18.50
2019-03-22T14:45:17.374Z,18.50
2019-03-22T14:47:46.121Z,18.70
2019-03-22T14:50:14.650Z,18.70
2019-03-22T14:52:43.098Z,18.70
2019-03-22T14:55:11.514Z,18.70
2019-03-22T14:57:48.285Z,18.70
2019-03-22T15:00:12.589Z,18.20
2019-03-22T15:02:41.021Z,18.40
2019-03-22T15:05:09.562Z,17.80
2019-03-22T15:07:38.488Z,17.80
2019-03-22T15:10:09.242Z,17.80
2019-03-22T15:12:37.706Z,17.90
2019-03-22T15:15:15.720Z,17.90
2019-03-22T15:17:48.847Z,17.80
2019-03-22T15:20:18.958Z,18.10
2019-03-22T15:22:51.866Z,18.20
2019-03-22T15:25:40.568Z,18.50
2019-03-22T15:28:27.592Z,18.90
2019-03-22T15:31:12.665Z,18.60
2019-03-22T15:33:54.668Z,18.80
2019-03-22T15:36:33.441Z,18.80
2019-03-22T15:39:19.856Z,19.10
2019-03-22T15:41:50.002Z,18.90
2019-03-22T15:44:18.763Z,18.90
2019-03-22T15:46:47.223Z,19.20
2019-03-22T15:49:15.709Z,19.50
2019-03-22T15:51:44.154Z,19.60
2019-03-22T15:54:12.631Z,19.20
2019-03-22T15:56:41.107Z,19.40
2019-03-22T15:59:09.533Z,19.40
2019-03-22T16:01:38.008Z,19.40
2019-03-22T16:04:06.487Z,19.50
2019-03-22T16:06:35.217Z,19.60
2019-03-22T16:09:05.401Z,19.80
2019-03-22T16:11:33.861Z,19.90
2019-03-22T16:14:02.580Z,19.90
2019-03-22T16:16:31.041Z,20.00
2019-03-22T16:18:59.565Z,20.20
2019-03-22T16:21:27.975Z,20.30
2019-03-22T16:23:56.429Z,20.30
2019-03-22T16:26:24.874Z,20.40
2019-03-22T16:28:53.615Z,20.50
2019-03-22T16:31:22.097Z,20.70
2019-03-22T16:33:54.357Z,20.80
2019-03-22T16:36:20.685Z,20.90
2019-03-22T16:38:49.116Z,21.00
2019-03-22T16:41:17.558Z,21.20
2019-03-22T16:43:46.064Z,21.30
2019-03-22T16:46:14.555Z,21.40
2019-03-22T16:48:42.976Z,21.50
2019-03-22T16:51:11.391Z,21.40
2019-03-22T16:53:40.166Z,21.40
2019-03-22T16:56:08.597Z,21.60
2019-03-22T16:58:37.055Z,21.70
2019-03-22T17:01:06.629Z,21.60
2019-03-22T17:03:35.333Z,21.60
2019-03-22T17:06:03.837Z,21.50
2019-03-22T17:08:32.353Z,21.80
2019-03-22T17:11:00.840Z,21.90
2019-03-22T17:13:29.294Z,22.10
2019-03-22T17:15:57.718Z,22.30
2019-03-22T17:18:26.174Z,22.20
2019-03-22T17:20:54.670Z,22.30
2019-03-22T17:23:23.208Z,22.40
2019-03-22T17:25:51.997Z,22.50
2019-03-22T17:28:20.514Z,22.80
2019-03-22T17:30:48.947Z,23.00
2019-03-22T17:33:17.378Z,23.50
2019-03-22T17:35:45.802Z,23.90
2019-03-22T17:38:14.246Z,23.70
2019-03-22T17:40:42.665Z,23.90
2019-03-22T17:43:11.130Z,24.30
2019-03-22T17:45:39.557Z,24.30
2019-03-22T17:48:08.025Z,25.10
2019-03-22T17:50:36.477Z,24.60
2019-03-22T17:53:05.121Z,25.10
2019-03-22T17:55:33.609Z,25.40
2019-03-22T17:58:02.905Z,25.20
2019-03-22T18:00:31.509Z,25.30
2019-03-22T18:02:59.942Z,25.60
2019-03-22T18:05:28.497Z,26.10
2019-03-22T18:07:57.141Z,26.50
2019-03-22T18:10:25.616Z,26.70
2019-03-22T18:12:54.029Z,27.10
2019-03-22T18:15:22.482Z,27.50
2019-03-22T18:17:50.889Z,27.70
2019-03-22T18:20:19.755Z,28.10
2019-03-22T18:22:48.218Z,28.50
2019-03-22T18:25:16.656Z,28.50
2019-03-22T18:27:45.092Z,29.00
2019-03-22T18:30:17.104Z,29.20
2019-03-22T18:32:45.533Z,29.20
2019-03-22T18:35:14.118Z,29.50
2019-03-22T18:37:42.522Z,29.60
2019-03-22T18:40:15.421Z,30.10
2019-03-22T18:42:44.008Z,30.60
2019-03-22T18:45:15.330Z,31.10
2019-03-22T18:47:45.443Z,31.30
2019-03-22T18:50:14.449Z,31.80
2019-03-22T18:52:42.881Z,32.30
2019-03-22T18:55:12.210Z,32.70
2019-03-22T18:57:40.651Z,33.10
2019-03-22T19:00:14.257Z,33.10
2019-03-22T19:02:42.670Z,33.70
2019-03-22T19:05:21.016Z,34.20
2019-03-22T19:07:49.519Z,34.40
2019-03-22T19:10:18.051Z,34.80
2019-03-22T19:12:46.479Z,35.00
2019-03-22T19:15:16.356Z,35.00
2019-03-22T19:17:44.796Z,35.10
2019-03-22T19:20:14.995Z,35.40
2019-03-22T19:22:44.598Z,35.60
2019-03-22T19:25:14.482Z,35.50
2019-03-22T19:27:43.629Z,35.60
2019-03-22T19:30:16.209Z,35.60
2019-03-22T19:32:44.654Z,35.80
2019-03-22T19:35:13.526Z,37.30
2019-03-22T19:37:41.986Z,37.30
2019-03-22T19:40:12.834Z,37.80
2019-03-22T19:42:41.290Z,38.10
2019-03-22T19:45:11.346Z,38.40
2019-03-22T19:47:40.033Z,38.50
2019-03-22T19:50:10.548Z,39.00
2019-03-22T19:52:39.114Z,39.00
2019-03-22T19:55:09.237Z,39.00
2019-03-22T19:57:38.256Z,39.30
2019-03-22T20:00:14.434Z,39.40
2019-03-22T20:02:43.299Z,39.50
2019-03-22T20:05:11.873Z,39.90
2019-03-22T20:07:40.341Z,40.10
2019-03-22T20:10:11.192Z,40.40
2019-03-22T20:12:39.612Z,40.80
2019-03-22T20:15:09.834Z,40.90
2019-03-22T20:17:38.854Z,41.00
2019-03-22T20:20:09.009Z,41.40
2019-03-22T20:22:37.470Z,41.40
2019-03-22T20:25:09.733Z,41.80
2019-03-22T20:27:38.254Z,41.90
2019-03-22T20:30:08.813Z,42.20
2019-03-22T20:32:37.291Z,42.50
2019-03-22T20:35:16.284Z,42.40
2019-03-22T20:37:38.990Z,42.50
2019-03-22T20:40:10.005Z,42.60
2019-03-22T20:42:38.453Z,43.10
2019-03-22T20:45:08.120Z,43.10
2019-03-22T20:47:36.877Z,43.20
2019-03-22T20:50:07.402Z,43.40
2019-03-22T20:52:35.931Z,43.60
2019-03-22T20:55:07.330Z,44.00
2019-03-22T20:57:35.801Z,44.10
2019-03-22T21:00:06.391Z,44.30
2019-03-22T21:02:34.860Z,44.50
2019-03-22T21:05:03.446Z,44.70
2019-03-22T21:07:31.947Z,45.00
2019-03-22T21:10:00.704Z,45.30
2019-03-22T21:12:29.104Z,45.10
2019-03-22T21:14:57.502Z,45.60
2019-03-22T21:17:25.956Z,45.80
2019-03-22T21:19:54.862Z,45.70
2019-03-22T21:22:23.299Z,45.80
2019-03-22T21:24:51.733Z,46.10
2019-03-22T21:27:20.217Z,46.80
2019-03-22T21:29:48.893Z,47.20
2019-03-22T21:32:17.322Z,47.50
2019-03-22T21:34:45.761Z,47.90
2019-03-22T21:37:14.206Z,47.70
2019-03-22T21:39:42.617Z,47.70
2019-03-22T21:42:11.079Z,47.70
2019-03-22T21:44:39.570Z,47.60
2019-03-22T21:47:08.131Z,47.80
2019-03-22T21:49:36.534Z,48.00
2019-03-22T21:52:05.106Z,48.20
2019-03-22T21:54:33.594Z,48.10
2019-03-22T21:57:02.180Z,48.40
2019-03-22T21:59:30.597Z,48.80
2019-03-22T22:01:59.136Z,48.60
2019-03-22T22:04:27.602Z,48.50
2019-03-22T22:06:56.047Z,48.70
2019-03-22T22:09:24.884Z,48.70
2019-03-22T22:11:53.305Z,48.90
2019-03-22T22:14:21.806Z,49.00
2019-03-22T22:16:50.292Z,49.30
2019-03-22T22:19:18.713Z,49.30
2019-03-22T22:21:47.149Z,49.00
2019-03-22T22:24:15.595Z,50.00
2019-03-22T22:26:44.083Z,49.50
2019-03-22T22:29:12.500Z,49.70
2019-03-22T22:31:41.221Z,49.70
2019-03-22T22:34:09.650Z,50.10
2019-03-22T22:36:38.177Z,50.70
2019-03-22T22:39:06.597Z,50.30
2019-03-22T22:41:35.007Z,50.30
2019-03-22T22:44:03.437Z,50.50
2019-03-22T22:46:31.897Z,50.60
2019-03-22T22:49:00.425Z,50.90
2019-03-22T22:51:28.833Z,50.80
2019-03-22T22:53:57.281Z,51.10
2019-03-22T22:56:25.731Z,51.10
2019-03-22T22:58:54.211Z,51.10
2019-03-22T23:01:22.749Z,51.20
2019-03-22T23:03:51.322Z,50.90
2019-03-22T23:06:19.743Z,51.20
2019-03-22T23:08:48.240Z,51.40
2019-03-22T23:11:16.729Z,51.50
2019-03-22T23:13:45.266Z,51.30
2019-03-22T23:16:14.021Z,51.10
2019-03-22T23:18:42.515Z,51.40
2019-03-22T23:21:11.089Z,52.50
2019-03-22T23:23:39.582Z,52.60
2019-03-22T23:26:08.001Z,52.20
2019-03-22T23:28:36.429Z,52.10
2019-03-22T23:31:04.869Z,52.10
2019-03-22T23:33:33.341Z,52.40
2019-03-22T23:36:01.862Z,52.50
2019-03-22T23:38:30.334Z,52.60
2019-03-22T23:40:58.741Z,53.00
2019-03-22T23:43:30.133Z,53.20
2019-03-22T23:45:58.614Z,53.40
2019-03-22T23:48:27.049Z,53.30
2019-03-22T23:50:55.448Z,54.00
2019-03-22T23:53:23.901Z,54.00
2019-03-22T23:55:52.346Z,53.80
2019-03-22T23:58:20.774Z,54.00
